sensor_id;sensor_type;location;lat;lon;timestamp;P1;durP1;ratioP1;P2;durP2;ratioP2
10465;SDS011;5280;42.600;23.556;2023-03-14T00:01:09;3.83;;;3.27;;
10465;SDS011;5280;42.600;23.556;2023-03-14T00:03:37;4.00;;;3.37;;
10465;SDS011;5280;42.600;23.556;2023-03-14T00:06:04;3.73;;;3.33;;
10465;SDS011;5280;42.600;23.556;2023-03-14T00:08:31;6.73;;;3.27;;
10465;SDS011;5280;42.600;23.556;2023-03-14T00:11:03;3.43;;;3.13;;
10465;SDS011;5280;42.600;23.556;2023-03-14T00:13:32;4.23;;;3.70;;
10465;SDS011;5280;42.600;23.556;2023-03-14T00:16:02;3.63;;;3.10;;
10465;SDS011;5280;42.600;23.556;2023-03-14T00:18:30;7.47;;;3.13;;
10465;SDS011;5280;42.600;23.556;2023-03-14T00:20:57;4.90;;;3.30;;
10465;SDS011;5280;42.600;23.556;2023-03-14T00:23:26;3.37;;;2.90;;
10465;SDS011;5280;42.600;23.556;2023-03-14T00:25:58;3.57;;;3.27;;
10465;SDS011;5280;42.600;23.556;2023-03-14T00:28:25;3.20;;;2.87;;
10465;SDS011;5280;42.600;23.556;2023-03-14T00:30:54;3.60;;;3.20;;
10465;SDS011;5280;42.600;23.556;2023-03-14T00:33:21;5.00;;;3.23;;
10465;SDS011;5280;42.600;23.556;2023-03-14T00:35:54;3.67;;;3.30;;
10465;SDS011;5280;42.600;23.556;2023-03-14T00:38:22;4.07;;;3.13;;
10465;SDS011;5280;42.600;23.556;2023-03-14T00:40:49;3.33;;;3.03;;
10465;SDS011;5280;42.600;23.556;2023-03-14T00:43:17;3.40;;;3.00;;
10465;SDS011;5280;42.600;23.556;2023-03-14T00:45:46;3.70;;;3.30;;
10465;SDS011;5280;42.600;23.556;2023-03-14T00:48:14;3.40;;;3.03;;
10465;SDS011;5280;42.600;23.556;2023-03-14T00:50:44;4.00;;;3.03;;
10465;SDS011;5280;42.600;23.556;2023-03-14T00:53:12;4.20;;;3.33;;
10465;SDS011;5280;42.600;23.556;2023-03-14T00:55:39;3.80;;;3.40;;
10465;SDS011;5280;42.600;23.556;2023-03-14T00:58:07;4.13;;;3.43;;
10465;SDS011;5280;42.600;23.556;2023-03-14T01:00:35;3.67;;;3.37;;
10465;SDS011;5280;42.600;23.556;2023-03-14T01:03:03;3.57;;;3.07;;
10465;SDS011;5280;42.600;23.556;2023-03-14T01:05:31;4.07;;;3.00;;
10465;SDS011;5280;42.600;23.556;2023-03-14T01:07:58;4.50;;;3.30;;
10465;SDS011;5280;42.600;23.556;2023-03-14T01:10:26;3.93;;;3.20;;
10465;SDS011;5280;42.600;23.556;2023-03-14T01:12:53;3.67;;;3.10;;
10465;SDS011;5280;42.600;23.556;2023-03-14T01:15:20;2.73;;;2.50;;
10465;SDS011;5280;42.600;23.556;2023-03-14T01:17:46;3.40;;;3.10;;
10465;SDS011;5280;42.600;23.556;2023-03-14T01:20:14;4.80;;;3.00;;
10465;SDS011;5280;42.600;23.556;2023-03-14T01:22:43;4.60;;;3.03;;
10465;SDS011;5280;42.600;23.556;2023-03-14T01:25:11;4.73;;;3.07;;
10465;SDS011;5280;42.600;23.556;2023-03-14T01:27:39;3.63;;;3.17;;
10465;SDS011;5280;42.600;23.556;2023-03-14T01:30:06;3.13;;;2.83;;
10465;SDS011;5280;42.600;23.556;2023-03-14T01:32:34;3.57;;;3.27;;
10465;SDS011;5280;42.600;23.556;2023-03-14T01:35:01;3.40;;;3.10;;
10465;SDS011;5280;42.600;23.556;2023-03-14T01:37:28;3.63;;;3.00;;
10465;SDS011;5280;42.600;23.556;2023-03-14T01:39:56;3.30;;;3.00;;
10465;SDS011;5280;42.600;23.556;2023-03-14T01:42:22;4.83;;;3.17;;
10465;SDS011;5280;42.600;23.556;2023-03-14T01:44:50;3.47;;;3.17;;
10465;SDS011;5280;42.600;23.556;2023-03-14T01:47:19;2.87;;;2.60;;
10465;SDS011;5280;42.600;23.556;2023-03-14T01:49:47;3.03;;;2.83;;
10465;SDS011;5280;42.600;23.556;2023-03-14T01:52:18;3.40;;;3.10;;
10465;SDS011;5280;42.600;23.556;2023-03-14T01:54:49;3.90;;;3.00;;
10465;SDS011;5280;42.600;23.556;2023-03-14T01:57:21;3.87;;;2.77;;
10465;SDS011;5280;42.600;23.556;2023-03-14T01:59:53;3.17;;;2.87;;
10465;SDS011;5280;42.600;23.556;2023-03-14T02:02:24;4.13;;;3.07;;
10465;SDS011;5280;42.600;23.556;2023-03-14T02:04:52;3.00;;;2.80;;
10465;SDS011;5280;42.600;23.556;2023-03-14T02:07:22;3.30;;;3.00;;
10465;SDS011;5280;42.600;23.556;2023-03-14T02:09:56;2.37;;;2.17;;
10465;SDS011;5280;42.600;23.556;2023-03-14T02:12:26;3.00;;;2.73;;
10465;SDS011;5280;42.600;23.556;2023-03-14T02:14:54;3.27;;;2.93;;
10465;SDS011;5280;42.600;23.556;2023-03-14T02:17:21;3.07;;;2.83;;
10465;SDS011;5280;42.600;23.556;2023-03-14T02:19:50;5.10;;;3.20;;
10465;SDS011;5280;42.600;23.556;2023-03-14T02:22:30;6.53;;;2.87;;
10465;SDS011;5280;42.600;23.556;2023-03-14T02:24:59;4.03;;;2.93;;
10465;SDS011;5280;42.600;23.556;2023-03-14T02:27:33;4.60;;;2.97;;
10465;SDS011;5280;42.600;23.556;2023-03-14T02:30:02;2.97;;;2.57;;
10465;SDS011;5280;42.600;23.556;2023-03-14T02:32:34;6.17;;;2.83;;
10465;SDS011;5280;42.600;23.556;2023-03-14T02:35:04;4.63;;;2.90;;
10465;SDS011;5280;42.600;23.556;2023-03-14T02:37:35;3.30;;;3.00;;
10465;SDS011;5280;42.600;23.556;2023-03-14T02:40:06;4.20;;;3.00;;
10465;SDS011;5280;42.600;23.556;2023-03-14T02:42:36;3.50;;;2.40;;
10465;SDS011;5280;42.600;23.556;2023-03-14T02:48:06;3.87;;;2.77;;
10465;SDS011;5280;42.600;23.556;2023-03-14T02:50:36;3.40;;;2.70;;
10465;SDS011;5280;42.600;23.556;2023-03-14T02:53:04;3.57;;;2.63;;
10465;SDS011;5280;42.600;23.556;2023-03-14T02:55:31;2.90;;;2.60;;
10465;SDS011;5280;42.600;23.556;2023-03-14T02:57:59;3.20;;;2.90;;
10465;SDS011;5280;42.600;23.556;2023-03-14T03:00:26;3.13;;;2.83;;
10465;SDS011;5280;42.600;23.556;2023-03-14T03:02:53;4.13;;;3.20;;
10465;SDS011;5280;42.600;23.556;2023-03-14T03:05:20;3.10;;;2.80;;
10465;SDS011;5280;42.600;23.556;2023-03-14T03:07:47;4.03;;;3.17;;
10465;SDS011;5280;42.600;23.556;2023-03-14T03:10:13;3.43;;;3.03;;
10465;SDS011;5280;42.600;23.556;2023-03-14T03:12:40;3.30;;;2.80;;
10465;SDS011;5280;42.600;23.556;2023-03-14T03:15:09;2.70;;;2.50;;
10465;SDS011;5280;42.600;23.556;2023-03-14T03:17:36;2.80;;;2.57;;
10465;SDS011;5280;42.600;23.556;2023-03-14T03:20:03;3.87;;;2.77;;
10465;SDS011;5280;42.600;23.556;2023-03-14T03:22:33;2.60;;;2.40;;
10465;SDS011;5280;42.600;23.556;2023-03-14T03:25:00;3.90;;;2.80;;
10465;SDS011;5280;42.600;23.556;2023-03-14T03:27:29;3.67;;;2.80;;
10465;SDS011;5280;42.600;23.556;2023-03-14T03:29:58;3.50;;;2.57;;
10465;SDS011;5280;42.600;23.556;2023-03-14T03:32:27;5.80;;;3.20;;
10465;SDS011;5280;42.600;23.556;2023-03-14T03:34:56;3.07;;;2.80;;
10465;SDS011;5280;42.600;23.556;2023-03-14T03:37:23;3.10;;;2.80;;
10465;SDS011;5280;42.600;23.556;2023-03-14T03:39:50;4.03;;;3.33;;
10465;SDS011;5280;42.600;23.556;2023-03-14T03:42:17;3.27;;;2.97;;
10465;SDS011;5280;42.600;23.556;2023-03-14T03:44:45;3.27;;;2.97;;
10465;SDS011;5280;42.600;23.556;2023-03-14T03:47:12;3.00;;;2.70;;
10465;SDS011;5280;42.600;23.556;2023-03-14T03:49:40;4.60;;;3.40;;
10465;SDS011;5280;42.600;23.556;2023-03-14T03:52:07;3.77;;;3.10;;
10465;SDS011;5280;42.600;23.556;2023-03-14T03:54:35;3.47;;;3.17;;
10465;SDS011;5280;42.600;23.556;2023-03-14T03:57:02;4.37;;;3.10;;
10465;SDS011;5280;42.600;23.556;2023-03-14T03:59:29;3.37;;;3.00;;
10465;SDS011;5280;42.600;23.556;2023-03-14T04:01:55;3.97;;;2.83;;
10465;SDS011;5280;42.600;23.556;2023-03-14T04:04:22;3.00;;;2.50;;
10465;SDS011;5280;42.600;23.556;2023-03-14T04:06:50;2.87;;;2.67;;
10465;SDS011;5280;42.600;23.556;2023-03-14T04:09:17;3.40;;;2.60;;
10465;SDS011;5280;42.600;23.556;2023-03-14T04:11:44;2.77;;;2.57;;
10465;SDS011;5280;42.600;23.556;2023-03-14T04:14:11;3.07;;;2.53;;
10465;SDS011;5280;42.600;23.556;2023-03-14T04:16:37;2.83;;;2.63;;
10465;SDS011;5280;42.600;23.556;2023-03-14T04:19:04;3.00;;;2.70;;
10465;SDS011;5280;42.600;23.556;2023-03-14T04:21:31;2.80;;;2.60;;
10465;SDS011;5280;42.600;23.556;2023-03-14T04:23:59;3.47;;;2.73;;
10465;SDS011;5280;42.600;23.556;2023-03-14T04:26:26;3.33;;;2.63;;
10465;SDS011;5280;42.600;23.556;2023-03-14T04:28:53;3.00;;;2.70;;
10465;SDS011;5280;42.600;23.556;2023-03-14T04:31:20;2.93;;;2.63;;
10465;SDS011;5280;42.600;23.556;2023-03-14T04:33:47;3.50;;;2.83;;
10465;SDS011;5280;42.600;23.556;2023-03-14T04:36:15;4.93;;;3.20;;
10465;SDS011;5280;42.600;23.556;2023-03-14T04:38:41;6.13;;;2.70;;
10465;SDS011;5280;42.600;23.556;2023-03-14T04:41:10;5.57;;;2.80;;
10465;SDS011;5280;42.600;23.556;2023-03-14T04:43:37;3.97;;;2.93;;
10465;SDS011;5280;42.600;23.556;2023-03-14T04:46:04;3.23;;;2.93;;
10465;SDS011;5280;42.600;23.556;2023-03-14T04:48:31;2.70;;;2.50;;
10465;SDS011;5280;42.600;23.556;2023-03-14T04:50:58;3.47;;;2.63;;
10465;SDS011;5280;42.600;23.556;2023-03-14T04:53:25;3.23;;;2.87;;
10465;SDS011;5280;42.600;23.556;2023-03-14T04:55:53;4.53;;;2.70;;
10465;SDS011;5280;42.600;23.556;2023-03-14T04:58:22;2.83;;;2.50;;
10465;SDS011;5280;42.600;23.556;2023-03-14T05:00:50;2.97;;;2.57;;
10465;SDS011;5280;42.600;23.556;2023-03-14T05:03:17;2.80;;;2.60;;
10465;SDS011;5280;42.600;23.556;2023-03-14T05:05:44;3.40;;;2.90;;
10465;SDS011;5280;42.600;23.556;2023-03-14T05:08:12;3.27;;;2.97;;
10465;SDS011;5280;42.600;23.556;2023-03-14T05:10:39;3.03;;;2.60;;
10465;SDS011;5280;42.600;23.556;2023-03-14T05:13:05;3.20;;;2.70;;
10465;SDS011;5280;42.600;23.556;2023-03-14T05:15:34;3.27;;;2.80;;
10465;SDS011;5280;42.600;23.556;2023-03-14T05:18:00;3.70;;;2.80;;
10465;SDS011;5280;42.600;23.556;2023-03-14T05:20:27;3.40;;;2.87;;
10465;SDS011;5280;42.600;23.556;2023-03-14T05:22:54;3.67;;;2.80;;
10465;SDS011;5280;42.600;23.556;2023-03-14T05:25:21;6.87;;;2.93;;
10465;SDS011;5280;42.600;23.556;2023-03-14T05:27:47;2.77;;;2.57;;
10465;SDS011;5280;42.600;23.556;2023-03-14T05:30:14;3.33;;;2.73;;
10465;SDS011;5280;42.600;23.556;2023-03-14T05:32:42;3.50;;;2.87;;
10465;SDS011;5280;42.600;23.556;2023-03-14T05:35:09;3.37;;;2.67;;
10465;SDS011;5280;42.600;23.556;2023-03-14T05:37:36;5.17;;;2.60;;
10465;SDS011;5280;42.600;23.556;2023-03-14T05:40:03;3.10;;;2.77;;
10465;SDS011;5280;42.600;23.556;2023-03-14T05:42:31;6.37;;;3.23;;
10465;SDS011;5280;42.600;23.556;2023-03-14T05:44:59;3.90;;;2.53;;
10465;SDS011;5280;42.600;23.556;2023-03-14T05:47:25;3.17;;;2.83;;
10465;SDS011;5280;42.600;23.556;2023-03-14T05:49:54;2.80;;;2.60;;
10465;SDS011;5280;42.600;23.556;2023-03-14T05:52:20;2.90;;;2.70;;
10465;SDS011;5280;42.600;23.556;2023-03-14T05:54:47;4.00;;;2.90;;
10465;SDS011;5280;42.600;23.556;2023-03-14T05:57:14;4.20;;;2.93;;
10465;SDS011;5280;42.600;23.556;2023-03-14T05:59:41;4.63;;;3.37;;
10465;SDS011;5280;42.600;23.556;2023-03-14T06:02:07;9.13;;;5.10;;
10465;SDS011;5280;42.600;23.556;2023-03-14T06:04:34;7.53;;;4.67;;
10465;SDS011;5280;42.600;23.556;2023-03-14T06:07:02;4.23;;;3.40;;
10465;SDS011;5280;42.600;23.556;2023-03-14T06:09:29;6.13;;;4.03;;
10465;SDS011;5280;42.600;23.556;2023-03-14T06:11:56;9.80;;;6.03;;
10465;SDS011;5280;42.600;23.556;2023-03-14T06:14:23;6.53;;;5.53;;
10465;SDS011;5280;42.600;23.556;2023-03-14T06:16:50;8.40;;;5.80;;
10465;SDS011;5280;42.600;23.556;2023-03-14T06:19:17;9.83;;;6.40;;
10465;SDS011;5280;42.600;23.556;2023-03-14T06:21:44;10.77;;;6.83;;
10465;SDS011;5280;42.600;23.556;2023-03-14T06:24:15;9.80;;;7.27;;
10465;SDS011;5280;42.600;23.556;2023-03-14T06:26:42;8.37;;;6.10;;
10465;SDS011;5280;42.600;23.556;2023-03-14T06:29:09;8.80;;;6.30;;
10465;SDS011;5280;42.600;23.556;2023-03-14T06:31:36;9.27;;;7.37;;
10465;SDS011;5280;42.600;23.556;2023-03-14T06:34:03;11.93;;;7.07;;
10465;SDS011;5280;42.600;23.556;2023-03-14T06:36:30;9.57;;;6.73;;
10465;SDS011;5280;42.600;23.556;2023-03-14T06:38:57;12.17;;;7.00;;
10465;SDS011;5280;42.600;23.556;2023-03-14T06:41:25;8.27;;;6.30;;
10465;SDS011;5280;42.600;23.556;2023-03-14T06:43:52;12.03;;;7.30;;
10465;SDS011;5280;42.600;23.556;2023-03-14T06:46:19;10.73;;;7.10;;
10465;SDS011;5280;42.600;23.556;2023-03-14T06:48:45;13.70;;;7.30;;
10465;SDS011;5280;42.600;23.556;2023-03-14T06:51:12;10.80;;;7.27;;
10465;SDS011;5280;42.600;23.556;2023-03-14T06:53:39;10.30;;;7.23;;
10465;SDS011;5280;42.600;23.556;2023-03-14T06:56:06;12.00;;;7.33;;
10465;SDS011;5280;42.600;23.556;2023-03-14T06:58:35;10.90;;;7.13;;
10465;SDS011;5280;42.600;23.556;2023-03-14T07:01:01;11.17;;;7.57;;
10465;SDS011;5280;42.600;23.556;2023-03-14T07:03:28;8.27;;;6.03;;
10465;SDS011;5280;42.600;23.556;2023-03-14T07:05:55;9.03;;;6.40;;
10465;SDS011;5280;42.600;23.556;2023-03-14T07:08:22;9.60;;;6.30;;
10465;SDS011;5280;42.600;23.556;2023-03-14T07:10:49;9.57;;;6.23;;
10465;SDS011;5280;42.600;23.556;2023-03-14T07:13:15;11.43;;;6.80;;
10465;SDS011;5280;42.600;23.556;2023-03-14T07:15:44;9.10;;;6.60;;
10465;SDS011;5280;42.600;23.556;2023-03-14T07:18:11;9.50;;;6.73;;
10465;SDS011;5280;42.600;23.556;2023-03-14T07:20:38;7.40;;;6.43;;
10465;SDS011;5280;42.600;23.556;2023-03-14T07:23:05;8.57;;;6.93;;
10465;SDS011;5280;42.600;23.556;2023-03-14T07:25:32;11.70;;;6.67;;
10465;SDS011;5280;42.600;23.556;2023-03-14T07:27:59;8.00;;;6.17;;
10465;SDS011;5280;42.600;23.556;2023-03-14T07:30:26;9.37;;;6.10;;
10465;SDS011;5280;42.600;23.556;2023-03-14T07:32:57;8.83;;;6.33;;
10465;SDS011;5280;42.600;23.556;2023-03-14T07:35:24;6.47;;;4.77;;
10465;SDS011;5280;42.600;23.556;2023-03-14T07:37:51;5.87;;;4.43;;
10465;SDS011;5280;42.600;23.556;2023-03-14T07:40:17;3.80;;;3.23;;
10465;SDS011;5280;42.600;23.556;2023-03-14T07:42:44;3.70;;;3.13;;
10465;SDS011;5280;42.600;23.556;2023-03-14T07:45:11;4.90;;;3.20;;
10465;SDS011;5280;42.600;23.556;2023-03-14T07:47:38;3.07;;;2.77;;
10465;SDS011;5280;42.600;23.556;2023-03-14T07:50:07;5.10;;;2.77;;
10465;SDS011;5280;42.600;23.556;2023-03-14T07:52:35;3.93;;;2.90;;
10465;SDS011;5280;42.600;23.556;2023-03-14T07:55:02;3.00;;;2.80;;
10465;SDS011;5280;42.600;23.556;2023-03-14T07:57:29;4.87;;;2.80;;
10465;SDS011;5280;42.600;23.556;2023-03-14T07:59:56;3.30;;;3.00;;
10465;SDS011;5280;42.600;23.556;2023-03-14T08:02:23;3.23;;;2.57;;
10465;SDS011;5280;42.600;23.556;2023-03-14T08:04:50;3.07;;;2.63;;
10465;SDS011;5280;42.600;23.556;2023-03-14T08:07:18;3.57;;;2.57;;
10465;SDS011;5280;42.600;23.556;2023-03-14T08:09:45;2.43;;;2.20;;
10465;SDS011;5280;42.600;23.556;2023-03-14T08:12:12;2.63;;;2.40;;
10465;SDS011;5280;42.600;23.556;2023-03-14T08:14:41;3.47;;;2.67;;
10465;SDS011;5280;42.600;23.556;2023-03-14T08:17:08;3.63;;;2.37;;
10465;SDS011;5280;42.600;23.556;2023-03-14T08:19:35;4.83;;;2.80;;
10465;SDS011;5280;42.600;23.556;2023-03-14T08:22:02;3.83;;;2.20;;
10465;SDS011;5280;42.600;23.556;2023-03-14T08:24:31;3.63;;;2.50;;
10465;SDS011;5280;42.600;23.556;2023-03-14T08:26:58;3.53;;;2.67;;
10465;SDS011;5280;42.600;23.556;2023-03-14T08:29:25;2.70;;;2.50;;
10465;SDS011;5280;42.600;23.556;2023-03-14T08:31:52;3.07;;;2.67;;
10465;SDS011;5280;42.600;23.556;2023-03-14T08:34:20;3.37;;;2.80;;
10465;SDS011;5280;42.600;23.556;2023-03-14T08:36:47;3.50;;;2.40;;
10465;SDS011;5280;42.600;23.556;2023-03-14T08:39:14;5.63;;;2.80;;
10465;SDS011;5280;42.600;23.556;2023-03-14T08:41:42;3.00;;;2.50;;
10465;SDS011;5280;42.600;23.556;2023-03-14T08:44:09;4.73;;;2.63;;
10465;SDS011;5280;42.600;23.556;2023-03-14T08:46:37;4.73;;;2.43;;
10465;SDS011;5280;42.600;23.556;2023-03-14T08:49:04;2.97;;;2.40;;
10465;SDS011;5280;42.600;23.556;2023-03-14T08:51:31;3.77;;;3.40;;
10465;SDS011;5280;42.600;23.556;2023-03-14T08:53:57;3.80;;;2.47;;
10465;SDS011;5280;42.600;23.556;2023-03-14T08:56:24;3.07;;;2.77;;
10465;SDS011;5280;42.600;23.556;2023-03-14T08:58:52;4.67;;;2.80;;
10465;SDS011;5280;42.600;23.556;2023-03-14T09:01:19;5.40;;;2.73;;
10465;SDS011;5280;42.600;23.556;2023-03-14T09:03:49;3.07;;;2.50;;
10465;SDS011;5280;42.600;23.556;2023-03-14T09:06:16;3.20;;;2.70;;
10465;SDS011;5280;42.600;23.556;2023-03-14T09:08:43;3.40;;;2.80;;
10465;SDS011;5280;42.600;23.556;2023-03-14T09:11:10;3.20;;;2.83;;
10465;SDS011;5280;42.600;23.556;2023-03-14T09:13:36;2.87;;;2.67;;
10465;SDS011;5280;42.600;23.556;2023-03-14T09:16:05;3.83;;;2.30;;
10465;SDS011;5280;42.600;23.556;2023-03-14T09:18:33;6.60;;;5.93;;
10465;SDS011;5280;42.600;23.556;2023-03-14T09:21:00;5.63;;;2.70;;
10465;SDS011;5280;42.600;23.556;2023-03-14T09:23:27;4.40;;;4.00;;
10465;SDS011;5280;42.600;23.556;2023-03-14T09:25:54;3.43;;;2.40;;
10465;SDS011;5280;42.600;23.556;2023-03-14T09:28:21;3.50;;;2.87;;
10465;SDS011;5280;42.600;23.556;2023-03-14T09:30:48;8.40;;;6.47;;
10465;SDS011;5280;42.600;23.556;2023-03-14T09:33:16;43.37;;;32.90;;
10465;SDS011;5280;42.600;23.556;2023-03-14T09:35:44;27.57;;;21.13;;
10465;SDS011;5280;42.600;23.556;2023-03-14T09:38:11;12.83;;;10.03;;
10465;SDS011;5280;42.600;23.556;2023-03-14T09:40:38;3.63;;;2.80;;
10465;SDS011;5280;42.600;23.556;2023-03-14T09:43:05;19.23;;;17.33;;
10465;SDS011;5280;42.600;23.556;2023-03-14T09:45:33;3.07;;;2.17;;
10465;SDS011;5280;42.600;23.556;2023-03-14T09:48:02;15.80;;;13.63;;
10465;SDS011;5280;42.600;23.556;2023-03-14T09:50:32;8.17;;;7.37;;
10465;SDS011;5280;42.600;23.556;2023-03-14T09:53:04;2.57;;;2.37;;
10465;SDS011;5280;42.600;23.556;2023-03-14T09:55:37;1.90;;;1.70;;
10465;SDS011;5280;42.600;23.556;2023-03-14T09:58:09;1.80;;;1.60;;
10465;SDS011;5280;42.600;23.556;2023-03-14T10:00:38;6.57;;;4.47;;
10465;SDS011;5280;42.600;23.556;2023-03-14T10:03:18;1.90;;;1.80;;
10465;SDS011;5280;42.600;23.556;2023-03-14T10:05:50;2.40;;;2.20;;
10465;SDS011;5280;42.600;23.556;2023-03-14T10:08:17;1.93;;;1.80;;
10465;SDS011;5280;42.600;23.556;2023-03-14T10:10:43;1.80;;;1.70;;
10465;SDS011;5280;42.600;23.556;2023-03-14T10:13:13;2.00;;;1.80;;
10465;SDS011;5280;42.600;23.556;2023-03-14T10:15:42;2.43;;;2.03;;
10465;SDS011;5280;42.600;23.556;2023-03-14T10:18:14;1.80;;;1.70;;
10465;SDS011;5280;42.600;23.556;2023-03-14T10:20:42;2.10;;;1.90;;
10465;SDS011;5280;42.600;23.556;2023-03-14T10:23:23;1.63;;;1.53;;
10465;SDS011;5280;42.600;23.556;2023-03-14T10:26:05;1.87;;;1.77;;
10465;SDS011;5280;42.600;23.556;2023-03-14T10:28:34;1.80;;;1.70;;
10465;SDS011;5280;42.600;23.556;2023-03-14T10:31:05;3.47;;;2.30;;
10465;SDS011;5280;42.600;23.556;2023-03-14T10:33:33;3.13;;;2.00;;
10465;SDS011;5280;42.600;23.556;2023-03-14T10:36:01;2.10;;;1.90;;
10465;SDS011;5280;42.600;23.556;2023-03-14T10:38:30;2.37;;;1.50;;
10465;SDS011;5280;42.600;23.556;2023-03-14T10:40:58;2.27;;;1.90;;
10465;SDS011;5280;42.600;23.556;2023-03-14T10:43:26;1.77;;;1.67;;
10465;SDS011;5280;42.600;23.556;2023-03-14T10:45:58;1.83;;;1.73;;
10465;SDS011;5280;42.600;23.556;2023-03-14T10:48:31;2.03;;;1.67;;
10465;SDS011;5280;42.600;23.556;2023-03-14T10:51:02;1.80;;;1.70;;
10465;SDS011;5280;42.600;23.556;2023-03-14T10:53:34;1.50;;;1.40;;
10465;SDS011;5280;42.600;23.556;2023-03-14T10:56:06;1.57;;;1.47;;
10465;SDS011;5280;42.600;23.556;2023-03-14T10:58:33;3.03;;;1.73;;
10465;SDS011;5280;42.600;23.556;2023-03-14T11:01:08;2.40;;;1.50;;
10465;SDS011;5280;42.600;23.556;2023-03-14T11:03:49;2.47;;;1.40;;
10465;SDS011;5280;42.600;23.556;2023-03-14T11:06:22;1.73;;;1.63;;
10465;SDS011;5280;42.600;23.556;2023-03-14T11:08:57;2.13;;;1.37;;
10465;SDS011;5280;42.600;23.556;2023-03-14T11:11:30;1.80;;;1.70;;
10465;SDS011;5280;42.600;23.556;2023-03-14T11:14:01;2.67;;;1.63;;
10465;SDS011;5280;42.600;23.556;2023-03-14T11:16:38;1.73;;;1.30;;
10465;SDS011;5280;42.600;23.556;2023-03-14T11:19:15;1.80;;;1.37;;
10465;SDS011;5280;42.600;23.556;2023-03-14T11:21:51;1.40;;;1.30;;
10465;SDS011;5280;42.600;23.556;2023-03-14T11:24:30;1.50;;;1.40;;
10465;SDS011;5280;42.600;23.556;2023-03-14T11:27:10;4.17;;;1.63;;
10465;SDS011;5280;42.600;23.556;2023-03-14T11:29:44;1.50;;;1.40;;
10465;SDS011;5280;42.600;23.556;2023-03-14T11:32:23;1.67;;;1.40;;
10465;SDS011;5280;42.600;23.556;2023-03-14T11:34:58;1.50;;;1.40;;
10465;SDS011;5280;42.600;23.556;2023-03-14T11:37:31;2.20;;;1.60;;
10465;SDS011;5280;42.600;23.556;2023-03-14T11:40:04;3.13;;;1.83;;
10465;SDS011;5280;42.600;23.556;2023-03-14T11:42:39;1.90;;;1.60;;
10465;SDS011;5280;42.600;23.556;2023-03-14T11:45:13;1.50;;;1.40;;
10465;SDS011;5280;42.600;23.556;2023-03-14T11:47:44;1.70;;;1.60;;
10465;SDS011;5280;42.600;23.556;2023-03-14T11:50:17;1.70;;;1.60;;
10465;SDS011;5280;42.600;23.556;2023-03-14T11:52:48;1.60;;;1.50;;
10465;SDS011;5280;42.600;23.556;2023-03-14T11:55:22;1.70;;;1.60;;
10465;SDS011;5280;42.600;23.556;2023-03-14T11:57:55;1.60;;;1.50;;
10465;SDS011;5280;42.600;23.556;2023-03-14T12:00:26;1.67;;;1.40;;
10465;SDS011;5280;42.600;23.556;2023-03-14T12:02:56;1.67;;;1.50;;
10465;SDS011;5280;42.600;23.556;2023-03-14T12:08:32;2.27;;;1.53;;
10465;SDS011;5280;42.600;23.556;2023-03-14T12:11:17;1.63;;;1.27;;
10465;SDS011;5280;42.600;23.556;2023-03-14T12:13:47;1.40;;;1.30;;
10465;SDS011;5280;42.600;23.556;2023-03-14T12:16:24;1.70;;;1.60;;
10465;SDS011;5280;42.600;23.556;2023-03-14T12:19:13;1.33;;;1.27;;
10465;SDS011;5280;42.600;23.556;2023-03-14T12:21:46;2.07;;;1.60;;
10465;SDS011;5280;42.600;23.556;2023-03-14T12:24:19;1.40;;;1.30;;
10465;SDS011;5280;42.600;23.556;2023-03-14T12:26:52;1.40;;;1.30;;
10465;SDS011;5280;42.600;23.556;2023-03-14T12:29:23;1.70;;;1.60;;
10465;SDS011;5280;42.600;23.556;2023-03-14T12:32:02;1.40;;;1.30;;
10465;SDS011;5280;42.600;23.556;2023-03-14T12:34:34;1.80;;;1.60;;
10465;SDS011;5280;42.600;23.556;2023-03-14T12:37:12;2.27;;;1.70;;
10465;SDS011;5280;42.600;23.556;2023-03-14T12:39:47;1.60;;;1.50;;
10465;SDS011;5280;42.600;23.556;2023-03-14T12:42:35;1.43;;;1.33;;
10465;SDS011;5280;42.600;23.556;2023-03-14T12:45:13;1.80;;;1.47;;
10465;SDS011;5280;42.600;23.556;2023-03-14T12:50:41;1.93;;;1.27;;
10465;SDS011;5280;42.600;23.556;2023-03-14T12:56:32;1.20;;;1.10;;
10465;SDS011;5280;42.600;23.556;2023-03-14T13:02:01;1.50;;;1.30;;
10465;SDS011;5280;42.600;23.556;2023-03-14T13:04:45;1.47;;;1.37;;
10465;SDS011;5280;42.600;23.556;2023-03-14T13:07:28;1.30;;;1.20;;
10465;SDS011;5280;42.600;23.556;2023-03-14T13:10:00;1.57;;;1.37;;
10465;SDS011;5280;42.600;23.556;2023-03-14T13:12:48;2.03;;;1.67;;
10465;SDS011;5280;42.600;23.556;2023-03-14T13:15:28;2.30;;;1.27;;
10465;SDS011;5280;42.600;23.556;2023-03-14T13:17:59;2.83;;;1.60;;
10465;SDS011;5280;42.600;23.556;2023-03-14T13:20:29;2.87;;;1.37;;
10465;SDS011;5280;42.600;23.556;2023-03-14T13:22:58;1.50;;;1.40;;
10465;SDS011;5280;42.600;23.556;2023-03-14T13:25:29;1.30;;;1.20;;
10465;SDS011;5280;42.600;23.556;2023-03-14T13:27:58;2.00;;;1.40;;
10465;SDS011;5280;42.600;23.556;2023-03-14T13:30:26;1.70;;;1.60;;
10465;SDS011;5280;42.600;23.556;2023-03-14T13:33:03;1.40;;;1.30;;
10465;SDS011;5280;42.600;23.556;2023-03-14T13:35:38;2.23;;;1.50;;
10465;SDS011;5280;42.600;23.556;2023-03-14T13:38:13;2.60;;;1.40;;
10465;SDS011;5280;42.600;23.556;2023-03-14T13:40:43;2.37;;;1.70;;
10465;SDS011;5280;42.600;23.556;2023-03-14T13:43:13;1.70;;;1.20;;
10465;SDS011;5280;42.600;23.556;2023-03-14T13:45:50;1.23;;;1.23;;
10465;SDS011;5280;42.600;23.556;2023-03-14T13:48:19;3.60;;;1.40;;
10465;SDS011;5280;42.600;23.556;2023-03-14T13:50:51;2.37;;;1.40;;
10465;SDS011;5280;42.600;23.556;2023-03-14T13:53:20;5.27;;;1.70;;
10465;SDS011;5280;42.600;23.556;2023-03-14T13:55:47;1.40;;;1.30;;
10465;SDS011;5280;42.600;23.556;2023-03-14T13:58:22;1.40;;;1.30;;
10465;SDS011;5280;42.600;23.556;2023-03-14T14:01:03;1.23;;;1.23;;
10465;SDS011;5280;42.600;23.556;2023-03-14T14:03:36;1.80;;;1.30;;
10465;SDS011;5280;42.600;23.556;2023-03-14T14:06:07;1.60;;;1.10;;
10465;SDS011;5280;42.600;23.556;2023-03-14T14:08:42;1.77;;;1.33;;
10465;SDS011;5280;42.600;23.556;2023-03-14T14:11:10;1.30;;;1.20;;
10465;SDS011;5280;42.600;23.556;2023-03-14T14:13:46;1.57;;;1.37;;
10465;SDS011;5280;42.600;23.556;2023-03-14T14:16:14;1.50;;;1.10;;
10465;SDS011;5280;42.600;23.556;2023-03-14T14:18:45;1.10;;;1.10;;
10465;SDS011;5280;42.600;23.556;2023-03-14T14:21:12;1.87;;;1.67;;
10465;SDS011;5280;42.600;23.556;2023-03-14T14:23:40;1.43;;;1.30;;
10465;SDS011;5280;42.600;23.556;2023-03-14T14:26:07;1.40;;;1.30;;
10465;SDS011;5280;42.600;23.556;2023-03-14T14:28:34;2.37;;;1.40;;
10465;SDS011;5280;42.600;23.556;2023-03-14T14:31:05;2.33;;;1.60;;
10465;SDS011;5280;42.600;23.556;2023-03-14T14:33:45;1.50;;;1.40;;
10465;SDS011;5280;42.600;23.556;2023-03-14T14:36:19;1.40;;;1.30;;
10465;SDS011;5280;42.600;23.556;2023-03-14T14:38:49;2.70;;;1.50;;
10465;SDS011;5280;42.600;23.556;2023-03-14T14:41:17;1.60;;;1.50;;
10465;SDS011;5280;42.600;23.556;2023-03-14T14:43:44;1.63;;;1.53;;
10465;SDS011;5280;42.600;23.556;2023-03-14T14:46:13;1.87;;;1.77;;
10465;SDS011;5280;42.600;23.556;2023-03-14T14:48:46;2.53;;;1.50;;
10465;SDS011;5280;42.600;23.556;2023-03-14T14:51:23;1.90;;;1.80;;
10465;SDS011;5280;42.600;23.556;2023-03-14T14:53:59;2.33;;;1.83;;
10465;SDS011;5280;42.600;23.556;2023-03-14T14:56:34;2.47;;;1.93;;
10465;SDS011;5280;42.600;23.556;2023-03-14T14:59:02;3.67;;;2.10;;
10465;SDS011;5280;42.600;23.556;2023-03-14T15:01:32;2.30;;;2.10;;
10465;SDS011;5280;42.600;23.556;2023-03-14T15:04:03;3.77;;;2.00;;
10465;SDS011;5280;42.600;23.556;2023-03-14T15:06:35;2.43;;;2.23;;
10465;SDS011;5280;42.600;23.556;2023-03-14T15:09:02;3.50;;;2.10;;
10465;SDS011;5280;42.600;23.556;2023-03-14T15:11:29;3.00;;;2.50;;
10465;SDS011;5280;42.600;23.556;2023-03-14T15:13:56;2.43;;;2.23;;
10465;SDS011;5280;42.600;23.556;2023-03-14T15:16:23;3.37;;;2.47;;